Time;durP1;ratioP1;P1;durP2;ratioP2;P2;SDS_P1;SDS_P2;PMS_P1;PMS_P2;Temp;Humidity;BMP_temperature;BMP_pressure;BME280_temperature;BME280_humidity;BME280_pressure;Samples;Min_cycle;Max_cycle;Signal;HPM_P1;HPM_P2
2023/09/09 00:00:55;;;;;;;30.65;22.17;;;;;;;20.38;100.00;101507.03;5042290;28;20041;-89
2023/09/09 00:03:22;;;;;;;31.67;22.98;;;;;;;20.33;100.00;101507.50;5044294;28;20959;-88
2023/09/09 00:05:48;;;;;;;27.20;21.83;;;;;;;20.21;100.00;101505.91;5009268;28;21422;-88
2023/09/09 00:08:19;;;;;;;28.13;22.08;;;;;;;20.15;100.00;101501.94;5024372;28;20055;-88
2023/09/09 00:10:45;;;;;;;31.38;23.55;;;;;;;20.17;100.00;101507.19;5018414;28;20129;-89
2023/09/09 00:13:11;;;;;;;27.08;21.67;;;;;;;20.13;100.00;101509.34;5003933;28;20025;-89
2023/09/09 00:15:37;;;;;;;29.17;24.33;;;;;;;20.13;100.00;101505.75;5037451;28;20037;-89
2023/09/09 00:18:03;;;;;;;25.88;22.67;;;;;;;20.15;100.00;101506.50;5039972;28;20121;-89
2023/09/09 00:20:30;;;;;;;28.98;24.02;;;;;;;20.17;100.00;101502.63;5045765;28;20075;-89
2023/09/09 00:22:56;;;;;;;36.10;26.25;;;;;;;20.11;100.00;101502.34;5009634;28;20033;-88
2023/09/09 00:25:22;;;;;;;32.85;24.02;;;;;;;19.99;100.00;101503.50;5005797;28;20092;-89
2023/09/09 00:27:48;;;;;;;26.08;21.63;;;;;;;19.96;100.00;101498.38;5001921;28;20117;-89
2023/09/09 00:30:14;;;;;;;28.55;24.67;;;;;;;20.06;100.00;101502.78;5025924;28;20037;-88
2023/09/09 00:32:40;;;;;;;28.35;23.38;;;;;;;20.06;100.00;101496.50;5044681;28;20041;-89
2023/09/09 00:35:06;;;;;;;23.40;20.90;;;;;;;19.97;100.00;101494.66;5013732;28;20156;-88
2023/09/09 00:37:32;;;;;;;29.58;22.00;;;;;;;19.84;100.00;101490.38;5042459;28;20040;-89
2023/09/09 00:39:58;;;;;;;23.85;19.10;;;;;;;19.80;100.00;101493.53;5004673;28;20070;-89
2023/09/09 00:42:25;;;;;;;21.20;18.33;;;;;;;19.76;100.00;101494.78;5025090;28;20037;-88
2023/09/09 00:44:51;;;;;;;25.73;20.77;;;;;;;19.75;100.00;101490.38;5027667;28;20038;-89
2023/09/09 00:47:17;;;;;;;30.67;24.05;;;;;;;19.76;100.00;101502.91;5003147;28;20033;-89
2023/09/09 00:49:43;;;;;;;28.35;22.73;;;;;;;19.78;100.00;101493.66;5026445;28;20049;-88
2023/09/09 00:52:09;;;;;;;36.40;28.10;;;;;;;19.81;100.00;101500.63;5040246;28;20038;-89
2023/09/09 00:54:35;;;;;;;28.30;22.33;;;;;;;19.74;100.00;101496.78;5045413;28;20068;-88
2023/09/09 00:57:04;;;;;;;26.40;23.38;;;;;;;19.66;100.00;101495.63;5013206;28;21025;-88
2023/09/09 00:59:29;;;;;;;27.55;23.92;;;;;;;19.72;100.00;101491.50;5033118;28;20096;-88
2023/09/09 01:01:57;;;;;;;31.15;24.92;;;;;;;19.66;100.00;101497.47;5026331;28;20495;-89
2023/09/09 01:04:24;;;;;;;34.35;27.58;;;;;;;19.71;100.00;101495.22;5009204;28;20043;-89
2023/09/09 01:06:51;;;;;;;29.33;25.65;;;;;;;19.69;100.00;101493.66;5009335;28;20112;-89
2023/09/09 01:09:16;;;;;;;29.90;26.58;;;;;;;19.59;100.00;101496.31;5041840;28;20040;-89
2023/09/09 01:11:42;;;;;;;38.25;29.92;;;;;;;19.60;100.00;101495.34;5028194;28;20065;-88
2023/09/09 01:14:08;;;;;;;31.02;23.63;;;;;;;19.46;100.00;101503.81;5002352;28;20048;-89
2023/09/09 01:16:34;;;;;;;29.73;22.42;;;;;;;19.46;100.00;101504.66;5017151;28;20539;-88
2023/09/09 01:19:01;;;;;;;35.33;27.63;;;;;;;19.52;100.00;101503.25;5024168;28;20065;-88
2023/09/09 01:21:28;;;;;;;30.70;25.77;;;;;;;19.50;100.00;101498.00;5041086;28;20041;-88
2023/09/09 01:23:54;;;;;;;28.15;24.85;;;;;;;19.52;100.00;101495.13;5020633;28;20041;-88
2023/09/09 01:26:20;;;;;;;38.28;28.42;;;;;;;19.48;100.00;101493.69;5000339;28;20101;-89
2023/09/09 01:28:47;;;;;;;40.92;30.75;;;;;;;19.55;100.00;101492.16;5023003;28;20136;-88
2023/09/09 01:31:12;;;;;;;32.47;26.20;;;;;;;19.42;100.00;101484.28;5047060;28;20510;-89
2023/09/09 01:33:39;;;;;;;41.08;30.73;;;;;;;19.52;100.00;101490.59;5018403;28;20115;-88
2023/09/09 01:36:05;;;;;;;29.05;25.77;;;;;;;19.46;100.00;101493.00;4997829;28;20061;-89
2023/09/09 01:38:34;;;;;;;33.97;28.58;;;;;;;19.50;100.00;101497.13;5022658;28;20212;-88
2023/09/09 01:41:03;;;;;;;31.92;25.98;;;;;;;19.44;100.00;101493.16;5007140;28;20137;-88
2023/09/09 01:43:30;;;;;;;32.13;25.23;;;;;;;19.40;100.00;101492.56;5007233;28;20111;-88
2023/09/09 01:45:56;;;;;;;29.55;24.55;;;;;;;19.41;100.00;101488.00;5001900;28;20038;-89
2023/09/09 01:48:25;;;;;;;28.05;24.75;;;;;;;19.32;100.00;101491.53;5001631;28;20033;-89
2023/09/09 01:50:51;;;;;;;35.05;26.58;;;;;;;19.29;100.00;101497.22;5015794;28;20752;-88
2023/09/09 01:53:17;;;;;;;30.67;26.98;;;;;;;19.25;100.00;101490.38;5001419;28;20904;-89
2023/09/09 01:55:42;;;;;;;32.13;25.52;;;;;;;19.23;100.00;101489.66;5002271;28;20585;-89
2023/09/09 01:58:08;;;;;;;30.25;24.33;;;;;;;19.20;100.00;101493.50;5006653;28;20483;-87
2023/09/09 02:00:33;;;;;;;31.75;25.20;;;;;;;19.25;100.00;101482.28;5040791;28;20036;-88
2023/09/09 02:02:59;;;;;;;28.33;24.17;;;;;;;19.25;100.00;101488.53;5016775;28;20491;-88
2023/09/09 02:05:25;;;;;;;29.73;25.40;;;;;;;19.25;100.00;101495.78;5042897;28;20033;-88
2023/09/09 02:07:51;;;;;;;35.45;26.15;;;;;;;19.25;100.00;101496.66;4990621;28;20034;-88
2023/09/09 02:10:17;;;;;;;34.83;30.42;;;;;;;19.19;100.00;101490.94;5001985;28;20030;-88
2023/09/09 02:12:44;;;;;;;40.72;30.10;;;;;;;19.17;100.00;101490.19;4994651;28;20073;-88
2023/09/09 02:15:11;;;;;;;38.55;28.40;;;;;;;19.12;100.00;101493.31;5036207;28;20101;-89
2023/09/09 02:17:37;;;;;;;35.90;28.33;;;;;;;19.09;100.00;101493.59;4997400;28;20137;-89
2023/09/09 02:20:04;;;;;;;30.42;25.35;;;;;;;19.04;100.00;101493.16;5030720;28;20956;-89
2023/09/09 02:22:30;;;;;;;30.02;24.17;;;;;;;19.05;100.00;101486.75;5035015;28;20143;-89
2023/09/09 02:24:56;;;;;;;32.30;23.50;;;;;;;19.03;100.00;101486.91;5000567;28;20052;-88
2023/09/09 02:27:22;;;;;;;32.97;26.17;;;;;;;19.07;100.00;101480.19;5019615;28;20041;-89
2023/09/09 02:29:50;;;;;;;29.80;23.30;;;;;;;18.98;100.00;101482.91;5008248;28;20140;-89
2023/09/09 02:32:16;;;;;;;38.35;32.33;;;;;;;19.04;100.00;101487.75;5014793;28;20124;-87
2023/09/09 02:34:42;;;;;;;49.22;34.88;;;;;;;19.05;100.00;101478.66;5024134;28;20033;-88
2023/09/09 02:37:20;;;;;;;37.63;28.67;;;;;;;18.96;100.00;101476.75;4996277;28;20132;-88
2023/09/09 02:39:50;;;;;;;35.58;27.25;;;;;;;18.86;100.00;101474.00;5020764;28;20586;-88
2023/09/09 02:42:21;;;;;;;36.40;27.40;;;;;;;18.83;100.00;101474.28;5041635;28;20107;-88
2023/09/09 02:44:49;;;;;;;33.15;25.65;;;;;;;18.74;100.00;101481.34;5017375;28;20041;-88
2023/09/09 02:47:15;;;;;;;31.17;25.42;;;;;;;18.72;100.00;101480.63;5018867;28;20107;-88
2023/09/09 02:49:45;;;;;;;30.08;25.35;;;;;;;18.72;100.00;101477.91;5004954;28;20038;-88
2023/09/09 02:52:11;;;;;;;39.85;30.60;;;;;;;18.69;100.00;101475.50;5010161;28;20129;-88
2023/09/09 02:54:39;;;;;;;36.05;29.17;;;;;;;18.73;100.00;101487.75;4995472;28;20104;-89
2023/09/09 02:57:05;;;;;;;42.88;28.30;;;;;;;18.61;100.00;101481.53;5002467;28;20510;-88
2023/09/09 02:59:35;;;;;;;34.78;28.75;;;;;;;18.62;100.00;101479.69;5018319;28;20109;-89
2023/09/09 03:02:04;;;;;;;40.03;29.65;;;;;;;18.54;100.00;101482.22;5024391;28;20057;-88
2023/09/09 03:04:30;;;;;;;34.78;28.73;;;;;;;18.61;100.00;101476.13;5021934;28;20041;-88
2023/09/09 03:06:56;;;;;;;45.55;33.38;;;;;;;18.55;100.00;101473.97;5025088;28;20392;-88
2023/09/09 03:09:22;;;;;;;40.70;31.65;;;;;;;18.45;100.00;101474.91;5007398;28;20029;-88
2023/09/09 03:11:48;;;;;;;43.83;34.08;;;;;;;18.54;100.00;101476.81;4999535;28;20038;-88
2023/09/09 03:14:16;;;;;;;34.17;28.20;;;;;;;18.51;100.00;101471.66;5012890;28;20030;-88
2023/09/09 03:16:44;;;;;;;35.70;29.25;;;;;;;18.49;100.00;101471.81;5001014;28;20048;-88
2023/09/09 03:19:10;;;;;;;33.58;27.27;;;;;;;18.45;100.00;101472.19;4993903;28;20065;-88
2023/09/09 03:21:35;;;;;;;34.95;26.52;;;;;;;18.38;100.00;101470.03;5031327;28;20037;-88
2023/09/09 03:24:01;;;;;;;32.83;25.65;;;;;;;18.41;100.00;101470.75;5015513;28;20136;-88
2023/09/09 03:26:27;;;;;;;29.98;25.40;;;;;;;18.42;100.00;101469.75;4998915;28;20041;-89
2023/09/09 03:28:55;;;;;;;36.10;26.92;;;;;;;18.41;100.00;101479.69;5015888;28;20817;-90
2023/09/09 03:31:21;;;;;;;33.83;28.88;;;;;;;18.37;100.00;101473.72;5020335;28;20044;-89
2023/09/09 03:33:46;;;;;;;34.00;27.40;;;;;;;18.47;100.00;101479.16;5040346;28;20033;-89
2023/09/09 03:36:12;;;;;;;43.25;35.33;;;;;;;18.44;100.00;101475.91;5017916;28;20038;-88
2023/09/09 03:38:39;;;;;;;36.88;31.20;;;;;;;18.40;100.00;101479.84;5006718;28;20271;-90
2023/09/09 03:41:08;;;;;;;43.13;33.90;;;;;;;18.40;100.00;101472.59;5023003;28;20950;-89
2023/09/09 03:43:36;;;;;;;43.90;33.90;;;;;;;18.44;100.00;101474.03;5019851;28;20068;-89
2023/09/09 03:46:02;;;;;;;37.72;30.45;;;;;;;18.44;100.00;101482.16;5023308;28;20116;-88
2023/09/09 03:48:28;;;;;;;37.67;30.08;;;;;;;18.43;100.00;101479.59;5006465;28;20052;-88
2023/09/09 03:50:58;;;;;;;37.80;32.35;;;;;;;18.46;100.00;101476.59;5003375;28;20864;-89
2023/09/09 03:53:24;;;;;;;42.63;33.58;;;;;;;18.45;100.00;101472.19;5002653;28;20121;-88
2023/09/09 03:55:50;;;;;;;37.80;31.63;;;;;;;18.40;100.00;101486.09;5020478;28;20400;-89
2023/09/09 03:58:16;;;;;;;39.97;30.17;;;;;;;18.32;100.00;101472.38;5024950;28;20044;-88
2023/09/09 04:00:41;;;;;;;39.40;29.02;;;;;;;18.28;100.00;101479.91;5001133;28;20038;-88
2023/09/09 04:03:07;;;;;;;30.60;24.85;;;;;;;18.27;100.00;101488.13;5004384;28;20096;-88
2023/09/09 04:05:33;;;;;;;38.95;33.60;;;;;;;18.27;100.00;101480.91;5008334;28;20108;-88
2023/09/09 04:08:03;;;;;;;48.80;38.72;;;;;;;18.28;100.00;101493.41;5005533;28;20042;-89
2023/09/09 04:10:30;;;;;;;41.60;33.42;;;;;;;18.27;100.00;101486.31;4997968;28;20037;-89
2023/09/09 04:12:55;;;;;;;34.67;30.90;;;;;;;18.21;100.00;101494.91;5007578;28;20485;-88
2023/09/09 04:15:21;;;;;;;37.08;28.80;;;;;;;18.23;100.00;101486.69;4997724;28;20061;-89
2023/09/09 04:17:46;;;;;;;36.85;29.45;;;;;;;18.11;100.00;101489.44;5006559;28;20049;-88
2023/09/09 04:20:12;;;;;;;35.75;27.55;;;;;;;18.08;100.00;101484.31;5007863;28;20029;-88
2023/09/09 04:22:39;;;;;;;33.17;25.65;;;;;;;18.06;100.00;101488.13;5017181;28;20048;-89
2023/09/09 04:25:05;;;;;;;33.03;27.20;;;;;;;18.08;100.00;101489.72;5044198;28;20041;-88
2023/09/09 04:27:31;;;;;;;36.42;30.23;;;;;;;18.05;100.00;101489.09;5025638;28;20088;-88
2023/09/09 04:29:57;;;;;;;34.92;29.85;;;;;;;18.04;100.00;101484.69;5040162;28;20030;-88
2023/09/09 04:32:26;;;;;;;40.65;32.35;;;;;;;18.06;100.00;101477.31;5004994;28;20191;-88
2023/09/09 04:34:52;;;;;;;35.60;30.77;;;;;;;18.02;100.00;101482.16;5029085;28;20076;-89
2023/09/09 04:37:19;;;;;;;41.63;31.85;;;;;;;17.93;100.00;101482.91;5018701;28;20033;-89
2023/09/09 04:39:45;;;;;;;33.00;27.88;;;;;;;17.96;100.00;101479.94;5016794;28;20477;-88
2023/09/09 04:42:11;;;;;;;32.97;27.83;;;;;;;17.92;100.00;101489.28;5047636;28;20041;-89
2023/09/09 04:44:36;;;;;;;31.45;28.05;;;;;;;17.90;100.00;101485.00;5027943;28;20053;-89
2023/09/09 04:47:02;;;;;;;30.13;25.50;;;;;;;17.90;100.00;101490.41;5002787;28;20052;-89
2023/09/09 04:49:29;;;;;;;30.42;26.77;;;;;;;17.92;100.00;101488.41;5029729;28;20030;-88
2023/09/09 04:51:56;;;;;;;36.47;29.40;;;;;;;17.92;100.00;101483.88;5018597;28;20560;-89
2023/09/09 04:54:21;;;;;;;29.08;25.98;;;;;;;17.93;100.00;101485.63;5015214;28;20041;-89
2023/09/09 04:56:48;;;;;;;30.08;26.02;;;;;;;17.95;100.00;101488.16;5030791;28;20041;-88
2023/09/09 04:59:17;;;;;;;33.15;28.83;;;;;;;17.93;100.00;101482.06;5049047;28;20182;-88
2023/09/09 05:01:43;;;;;;;39.42;32.35;;;;;;;17.90;100.00;101490.41;5031004;28;20833;-89
2023/09/09 05:04:09;;;;;;;38.20;29.92;;;;;;;17.89;100.00;101483.28;5030869;28;20822;-88
2023/09/09 05:06:35;;;;;;;36.80;29.15;;;;;;;17.88;100.00;101482.44;5037030;28;20060;-89
2023/09/09 05:09:01;;;;;;;38.25;32.28;;;;;;;17.93;100.00;101487.47;5010413;28;20038;-88
2023/09/09 05:11:28;;;;;;;33.92;30.23;;;;;;;17.94;100.00;101490.00;5005598;28;20030;-89
2023/09/09 05:13:53;;;;;;;36.28;30.35;;;;;;;18.02;100.00;101492.06;5043376;28;20039;-88
2023/09/09 05:16:21;;;;;;;35.67;30.55;;;;;;;18.06;100.00;101491.66;5013112;28;20046;-88
2023/09/09 05:18:46;;;;;;;33.60;28.05;;;;;;;18.04;100.00;101499.06;5045701;28;20069;-88
2023/09/09 05:21:12;;;;;;;34.45;29.38;;;;;;;18.16;100.00;101493.59;5032165;28;21038;-89
2023/09/09 05:23:39;;;;;;;43.20;30.17;;;;;;;18.19;100.00;101496.03;5045516;28;20045;-88
2023/09/09 05:26:04;;;;;;;33.65;29.48;;;;;;;18.18;100.00;101499.75;5029358;28;20064;-88
2023/09/09 05:28:31;;;;;;;29.27;23.95;;;;;;;18.21;100.00;101500.31;5011695;28;20045;-88
2023/09/09 05:30:59;;;;;;;38.90;29.20;;;;;;;18.26;100.00;101500.78;5021565;28;20041;-88
2023/09/09 05:33:28;;;;;;;33.35;28.58;;;;;;;18.37;100.00;101502.56;5020683;28;20041;-88
2023/09/09 05:35:54;;;;;;;34.30;27.80;;;;;;;18.32;100.00;101502.97;5030600;28;20097;-88
2023/09/09 05:38:19;;;;;;;31.30;26.50;;;;;;;18.29;100.00;101503.22;5026315;28;20966;-88
2023/09/09 05:40:45;;;;;;;31.48;26.17;;;;;;;18.40;100.00;101509.56;5042208;28;20542;-90
2023/09/09 05:43:11;;;;;;;36.50;32.00;;;;;;;18.47;100.00;101519.69;5018636;28;20125;-89
2023/09/09 05:45:37;;;;;;;32.90;28.23;;;;;;;18.51;100.00;101515.72;5028011;28;20061;-88
2023/09/09 05:48:03;;;;;;;34.15;28.80;;;;;;;18.64;100.00;101518.25;5027105;28;20034;-88
2023/09/09 05:50:32;;;;;;;37.28;30.13;;;;;;;18.71;100.00;101522.16;5006998;28;20114;-88
2023/09/09 05:52:58;;;;;;;38.35;33.20;;;;;;;18.75;100.00;101520.03;5012559;28;20122;-89
2023/09/09 05:55:27;;;;;;;44.38;35.78;;;;;;;18.69;100.00;101524.13;5040522;28;20561;-89
2023/09/09 05:57:53;;;;;;;55.83;42.05;;;;;;;18.88;100.00;101520.69;5020968;28;20053;-88
2023/09/09 06:00:20;;;;;;;46.95;35.42;;;;;;;18.92;100.00;101521.25;5011316;28;20034;-89
2023/09/09 06:02:47;;;;;;;47.97;31.85;;;;;;;19.08;100.00;101521.63;5012245;28;20041;-88
2023/09/09 06:05:14;;;;;;;39.40;28.92;;;;;;;19.19;100.00;101531.50;5046697;28;20045;-89
2023/09/09 06:07:42;;;;;;;40.92;31.30;;;;;;;19.25;100.00;101525.53;5009908;28;20046;-89
2023/09/09 06:10:08;;;;;;;58.17;44.58;;;;;;;19.38;100.00;101531.56;5047595;28;20030;-89
2023/09/09 06:12:34;;;;;;;57.38;42.45;;;;;;;19.53;100.00;101532.00;5046745;28;20383;-89
2023/09/09 06:14:59;;;;;;;58.80;46.95;;;;;;;19.59;100.00;101529.66;5024807;28;20030;-89
2023/09/09 06:17:26;;;;;;;59.92;44.33;;;;;;;19.72;100.00;101534.81;5031063;28;20038;-88
2023/09/09 06:19:51;;;;;;;67.72;52.00;;;;;;;19.80;100.00;101529.56;5046245;28;20549;-89
2023/09/09 06:22:17;;;;;;;62.20;47.45;;;;;;;19.94;100.00;101531.00;5020174;28;20034;-88
2023/09/09 06:24:43;;;;;;;70.75;54.75;;;;;;;20.03;100.00;101534.69;5021815;28;20570;-88
2023/09/09 06:27:09;;;;;;;73.75;53.75;;;;;;;20.13;100.00;101539.16;5026780;28;20038;-88
2023/09/09 06:29:36;;;;;;;76.50;54.60;;;;;;;20.24;100.00;101535.44;5029458;28;20034;-88
2023/09/09 06:32:03;;;;;;;76.53;56.92;;;;;;;20.29;100.00;101533.16;5026923;28;20111;-88
2023/09/09 06:34:29;;;;;;;83.60;59.00;;;;;;;20.41;100.00;101547.38;5028599;28;20044;-88
2023/09/09 06:36:55;;;;;;;84.47;62.17;;;;;;;20.55;100.00;101548.84;5018166;28;20041;-91
2023/09/09 06:39:21;;;;;;;93.35;67.03;;;;;;;20.69;100.00;101553.81;5020826;28;20034;-88
2023/09/09 06:41:46;;;;;;;108.30;80.53;;;;;;;20.85;100.00;101547.78;5026672;28;20029;-89
2023/09/09 06:44:12;;;;;;;129.38;90.75;;;;;;;21.02;100.00;101548.84;5000331;28;20038;-89
2023/09/09 06:46:38;;;;;;;121.10;86.13;;;;;;;21.12;100.00;101549.69;5047382;28;20025;-88
2023/09/09 06:49:04;;;;;;;149.90;103.47;;;;;;;21.35;100.00;101556.47;5020025;28;20045;-88
2023/09/09 06:51:32;;;;;;;173.85;116.07;;;;;;;21.51;100.00;101558.53;5023517;28;20072;-88
2023/09/09 06:53:58;;;;;;;150.02;106.05;;;;;;;21.71;100.00;101557.41;5027771;28;20045;-87
2023/09/09 06:56:24;;;;;;;180.57;122.85;;;;;;;21.79;100.00;101561.22;5023887;28;20814;-88
2023/09/09 06:58:50;;;;;;;168.07;115.53;;;;;;;21.94;100.00;101559.72;5046225;28;20045;-88
2023/09/09 07:01:18;;;;;;;177.63;118.18;;;;;;;22.19;100.00;101553.56;5023365;28;20096;-88
2023/09/09 07:03:44;;;;;;;175.90;119.95;;;;;;;22.23;100.00;101556.78;5044053;28;20090;-87
2023/09/09 07:06:10;;;;;;;179.15;123.47;;;;;;;22.45;100.00;101553.59;5026824;28;20751;-88
2023/09/09 07:08:40;;;;;;;178.68;121.47;;;;;;;22.69;100.00;101560.22;5047521;28;20041;-89
2023/09/09 07:11:06;;;;;;;185.40;124.10;;;;;;;22.80;100.00;101554.53;5025566;28;20034;-88
2023/09/09 07:13:32;;;;;;;185.68;125.60;;;;;;;22.91;100.00;101551.59;5022320;28;20030;-88
2023/09/09 07:15:57;;;;;;;188.50;125.10;;;;;;;23.08;100.00;101557.13;5025380;28;20309;-89
2023/09/09 07:18:25;;;;;;;179.77;122.65;;;;;;;23.24;100.00;101549.91;5048473;28;20620;-88
2023/09/09 07:20:51;;;;;;;173.70;122.57;;;;;;;23.39;100.00;101554.72;5020219;28;20041;-88
2023/09/09 07:23:18;;;;;;;195.23;128.15;;;;;;;23.38;100.00;101556.59;5045797;28;20038;-88
2023/09/09 07:25:47;;;;;;;202.93;130.60;;;;;;;23.48;100.00;101560.03;5010020;28;20066;-88
2023/09/09 07:28:14;;;;;;;186.63;128.10;;;;;;;23.65;100.00;101555.56;5026103;28;20084;-89
2023/09/09 07:30:40;;;;;;;210.73;134.98;;;;;;;23.71;100.00;101562.22;5011419;28;20061;-88
2023/09/09 07:33:05;;;;;;;190.98;129.48;;;;;;;23.57;100.00;101560.94;5041969;28;20061;-87
2023/09/09 07:35:35;;;;;;;189.10;127.07;;;;;;;23.92;100.00;101559.88;5040242;28;20088;-89
2023/09/09 07:38:00;;;;;;;201.13;131.70;;;;;;;24.02;100.00;101549.69;5030792;28;20037;-88
2023/09/09 07:40:26;;;;;;;187.00;125.78;;;;;;;24.12;100.00;101559.56;5028997;28;20037;-87
2023/09/09 07:42:53;;;;;;;194.55;128.90;;;;;;;24.08;100.00;101561.78;5031281;28;20071;-88
2023/09/09 07:45:19;;;;;;;182.75;125.13;;;;;;;24.37;100.00;101560.47;5049290;28;20142;-88
2023/09/09 07:47:46;;;;;;;186.45;124.22;;;;;;;24.18;100.00;101559.75;5047953;28;20041;-87
2023/09/09 07:50:12;;;;;;;183.38;122.90;;;;;;;24.29;100.00;101556.66;5010162;28;20404;-87
2023/09/09 07:52:38;;;;;;;173.15;118.72;;;;;;;24.49;100.00;101567.28;5030115;28;20041;-88
2023/09/09 07:55:04;;;;;;;177.02;119.07;;;;;;;24.79;100.00;101563.00;5029886;28;20041;-88
2023/09/09 07:57:30;;;;;;;161.80;112.90;;;;;;;25.04;100.00;101563.81;5019038;28;20137;-87
2023/09/09 07:59:56;;;;;;;161.85;113.30;;;;;;;25.35;100.00;101561.19;5043115;28;20109;-87
2023/09/09 08:02:22;;;;;;;164.38;114.38;;;;;;;25.43;100.00;101566.63;5020934;28;20108;-88
2023/09/09 08:04:49;;;;;;;162.52;109.60;;;;;;;25.55;100.00;101572.53;5003684;28;20619;-88
2023/09/09 08:07:15;;;;;;;156.65;107.80;;;;;;;25.49;100.00;101573.25;5014685;28;20049;-87
2023/09/09 08:09:41;;;;;;;149.48;106.32;;;;;;;25.41;100.00;101570.56;5022016;28;20069;-88
2023/09/09 08:12:07;;;;;;;164.48;110.82;;;;;;;25.31;100.00;101570.78;5019603;28;20045;-88
2023/09/09 08:14:33;;;;;;;151.52;108.57;;;;;;;25.11;100.00;101574.94;5023852;28;20046;-88
2023/09/09 08:16:58;;;;;;;150.75;106.00;;;;;;;24.93;100.00;101575.94;5021985;28;20034;-88
2023/09/09 08:19:24;;;;;;;147.15;103.22;;;;;;;24.85;100.00;101577.81;5023041;28;20037;-87
2023/09/09 08:21:50;;;;;;;146.10;102.50;;;;;;;24.79;100.00;101584.81;5001980;28;20034;-88
2023/09/09 08:24:15;;;;;;;142.98;104.22;;;;;;;24.82;100.00;101584.50;5020266;28;20042;-88
2023/09/09 08:26:41;;;;;;;133.02;98.43;;;;;;;24.72;100.00;101578.38;5030024;28;20029;-87
2023/09/09 08:29:07;;;;;;;130.73;96.45;;;;;;;24.71;100.00;101587.59;5017813;28;20093;-88
2023/09/09 08:31:36;;;;;;;131.88;95.35;;;;;;;24.64;100.00;101594.72;5010950;28;20117;-89
2023/09/09 08:34:01;;;;;;;133.88;95.20;;;;;;;24.63;100.00;101582.13;5020852;28;20428;-88
2023/09/09 08:36:27;;;;;;;125.47;91.32;;;;;;;24.84;100.00;101587.88;5000107;28;20125;-88
2023/09/09 08:38:56;;;;;;;123.30;86.85;;;;;;;24.74;100.00;101592.69;5007251;28;20029;-89
2023/09/09 08:41:37;;;;;;;123.13;89.93;;;;;;;24.80;100.00;101595.59;5004881;28;21432;-87
2023/09/09 08:44:12;;;;;;;126.03;91.72;;;;;;;24.80;100.00;101600.19;5039235;28;20049;-89
2023/09/09 08:46:38;;;;;;;125.43;92.88;;;;;;;24.76;100.00;101599.69;5005631;28;20042;-88
2023/09/09 08:49:07;;;;;;;122.78;89.72;;;;;;;24.69;100.00;101605.97;5010601;28;20625;-88
2023/09/09 08:51:46;;;;;;;132.48;94.30;;;;;;;24.72;100.00;101602.91;5003903;28;20030;-88
2023/09/09 08:54:14;;;;;;;126.40;93.65;;;;;;;24.83;100.00;101615.34;5017827;28;20045;-89
2023/09/09 08:56:42;;;;;;;126.07;93.15;;;;;;;24.93;100.00;101616.88;5006595;28;20487;-88
2023/09/09 08:59:08;;;;;;;120.97;93.05;;;;;;;24.93;100.00;101621.47;5002279;28;21069;-88
2023/09/09 09:01:35;;;;;;;129.68;94.45;;;;;;;25.13;100.00;101622.00;5039072;28;20038;-88
2023/09/09 09:04:01;;;;;;;129.02;95.07;;;;;;;25.14;100.00;101620.97;5020479;28;20042;-88
2023/09/09 09:06:28;;;;;;;120.53;91.82;;;;;;;25.25;100.00;101628.78;5020616;28;20033;-87
2023/09/09 09:08:58;;;;;;;115.50;84.78;;;;;;;25.35;100.00;101628.59;5020830;28;20034;-88
2023/09/09 09:11:23;;;;;;;117.60;87.20;;;;;;;25.27;100.00;101627.59;5041288;28;20030;-87
2023/09/09 09:13:50;;;;;;;120.82;85.28;;;;;;;25.40;100.00;101632.50;5020931;28;20042;-88
2023/09/09 09:16:17;;;;;;;113.95;82.22;;;;;;;25.35;100.00;101618.53;5011946;28;20534;-88
2023/09/09 09:18:42;;;;;;;116.35;85.47;;;;;;;25.25;100.00;101624.22;4992939;28;20045;-88
2023/09/09 09:21:10;;;;;;;113.50;82.90;;;;;;;25.25;100.00;101612.41;4998245;28;20030;-88
2023/09/09 09:23:45;;;;;;;118.55;86.20;;;;;;;25.45;100.00;101616.47;5017630;28;20746;-88
2023/09/09 09:26:27;;;;;;;114.75;79.70;;;;;;;25.64;100.00;101626.09;5003219;28;20937;-88
2023/09/09 09:28:53;;;;;;;104.68;77.10;;;;;;;25.66;100.00;101615.03;4992702;28;20043;-90
2023/09/09 09:31:27;;;;;;;92.22;70.18;;;;;;;25.78;100.00;101614.47;5001360;28;20072;-89
2023/09/09 09:33:53;;;;;;;86.85;67.63;;;;;;;25.85;100.00;101611.03;5009940;28;21232;-87
2023/09/09 09:36:20;;;;;;;86.60;66.95;;;;;;;25.85;100.00;101613.75;4996807;28;20860;-88
2023/09/09 09:38:48;;;;;;;92.03;69.90;;;;;;;25.97;100.00;101606.88;5001511;28;20117;-90
2023/09/09 09:41:17;;;;;;;101.75;74.20;;;;;;;26.13;100.00;101606.75;4997057;28;20018;-89
2023/09/09 09:43:47;;;;;;;94.00;71.10;;;;;;;26.16;100.00;101605.56;4996112;28;20381;-88
2023/09/09 09:46:20;;;;;;;88.95;67.82;;;;;;;26.20;100.00;101605.00;4993004;28;20034;-89
2023/09/09 09:48:46;;;;;;;91.45;68.13;;;;;;;26.15;100.00;101606.56;5014273;28;20030;-88
2023/09/09 09:51:12;;;;;;;96.82;73.40;;;;;;;26.13;100.00;101603.19;5008797;28;20042;-87
2023/09/09 09:53:47;;;;;;;92.55;70.75;;;;;;;26.21;100.00;101601.25;5011772;28;20089;-87
2023/09/09 09:56:18;;;;;;;94.78;69.55;;;;;;;26.32;100.00;101603.56;4995949;28;20048;-88
2023/09/09 09:58:50;;;;;;;93.45;68.53;;;;;;;26.37;100.00;101603.03;5014134;28;20034;-89
2023/09/09 10:01:15;;;;;;;108.15;77.85;;;;;;;26.27;100.00;101599.69;4998182;28;20034;-89
2023/09/09 10:03:47;;;;;;;87.10;66.07;;;;;;;26.42;100.00;101599.75;4997600;28;20046;-88
2023/09/09 10:06:18;;;;;;;85.00;63.63;;;;;;;26.60;100.00;101603.03;5001821;28;20038;-89
2023/09/09 10:08:56;;;;;;;88.68;65.75;;;;;;;26.60;100.00;101600.28;5012607;28;20058;-88
2023/09/09 10:11:25;;;;;;;93.35;67.15;;;;;;;26.64;100.00;101604.38;4998336;28;20038;-88
2023/09/09 10:14:08;;;;;;;86.72;65.65;;;;;;;26.72;100.00;101608.94;5006717;28;20048;-88
2023/09/09 10:16:35;;;;;;;85.63;61.22;;;;;;;26.66;100.00;101605.03;4996865;28;20030;-88
2023/09/09 10:19:02;;;;;;;89.25;67.68;;;;;;;26.31;100.00;101603.75;5033123;28;20124;-89
2023/09/09 10:21:30;;;;;;;90.80;64.40;;;;;;;26.63;100.00;101597.19;5015545;28;20627;-86
2023/09/09 10:23:56;;;;;;;83.13;59.92;;;;;;;26.82;100.00;101593.09;5016989;28;20105;-89
2023/09/09 10:26:23;;;;;;;79.60;58.92;;;;;;;26.95;100.00;101600.66;5003020;28;20060;-88
2023/09/09 10:28:49;;;;;;;77.07;58.10;;;;;;;26.95;100.00;101590.56;5002118;28;20092;-86
2023/09/09 10:31:18;;;;;;;84.32;60.17;;;;;;;27.05;100.00;101593.03;5032934;28;20644;-87
2023/09/09 10:33:47;;;;;;;87.97;62.42;;;;;;;27.04;100.00;101589.44;5038977;28;20312;-90
2023/09/09 10:36:17;;;;;;;76.57;58.08;;;;;;;27.11;100.00;101592.34;5011566;28;20090;-87
2023/09/09 10:38:43;;;;;;;73.10;55.65;;;;;;;27.05;100.00;101588.41;5022485;28;20045;-88
2023/09/09 10:41:10;;;;;;;65.53;52.10;;;;;;;27.04;100.00;101589.44;5020573;28;20067;-87
2023/09/09 10:43:37;;;;;;;74.03;54.67;;;;;;;27.15;100.00;101584.56;5038628;28;20049;-88
2023/09/09 10:46:03;;;;;;;63.78;48.55;;;;;;;27.34;100.00;101584.00;4992468;28;20085;-91
2023/09/09 10:48:29;;;;;;;72.22;54.35;;;;;;;27.17;100.00;101579.78;5019770;28;20482;-89
2023/09/09 10:50:55;;;;;;;79.55;61.22;;;;;;;27.28;100.00;101585.63;5014973;28;21249;-88
2023/09/09 10:53:28;;;;;;;69.95;54.97;;;;;;;27.34;99.67;101581.28;5041467;28;20029;-86
2023/09/09 10:56:18;;;;;;;62.63;50.22;;;;;;;27.32;97.68;101580.63;5039191;28;20038;-88
2023/09/09 10:58:44;;;;;;;65.45;52.75;;;;;;;26.77;100.00;101585.44;5027524;28;21490;-87